createdAt,value
2022-12-11T00:00:56.448Z,20.65
2022-12-11T00:03:24.701Z,22.67
2022-12-11T00:05:52.322Z,22.00
2022-12-11T00:08:20.473Z,19.10
2022-12-11T00:10:50.055Z,19.92
2022-12-11T00:13:17.752Z,18.97
2022-12-11T00:15:45.473Z,22.02
2022-12-11T00:18:15.021Z,22.98
2022-12-11T00:20:42.755Z,19.83
2022-12-11T00:23:11.220Z,19.88
2022-12-11T00:25:47.108Z,18.97
2022-12-11T00:28:19.093Z,19.73
2022-12-11T00:30:47.778Z,19.27
2022-12-11T00:33:15.942Z,19.03
2022-12-11T00:35:45.817Z,18.70
2022-12-11T00:38:18.772Z,20.33
2022-12-11T00:40:46.978Z,19.93
2022-12-11T00:45:45.309Z,17.40
2022-12-11T00:48:13.697Z,19.33
2022-12-11T00:50:43.238Z,18.27
2022-12-11T00:53:11.050Z,18.53
2022-12-11T00:55:40.957Z,19.10
2022-12-11T00:58:09.365Z,20.33
2022-12-11T01:00:38.160Z,20.20
2022-12-11T01:03:08.026Z,18.13
2022-12-11T01:05:35.982Z,19.73
2022-12-11T01:08:04.328Z,16.92
2022-12-11T01:10:32.763Z,18.00
2022-12-11T01:13:04.922Z,19.27
2022-12-11T01:15:41.568Z,18.50
2022-12-11T01:18:11.620Z,18.83
2022-12-11T01:20:40.846Z,19.87
2022-12-11T01:23:10.011Z,18.93
2022-12-11T01:25:40.506Z,19.00
2022-12-11T01:28:08.503Z,18.97
2022-12-11T01:30:37.258Z,19.55
2022-12-11T01:33:05.034Z,19.97
2022-12-11T01:35:32.723Z,19.02
2022-12-11T01:38:00.611Z,19.95
2022-12-11T01:40:28.289Z,20.33
2022-12-11T01:42:55.978Z,21.98
2022-12-11T01:45:38.926Z,19.80
2022-12-11T01:48:14.307Z,21.47
2022-12-11T01:50:49.282Z,20.13
2022-12-11T01:53:25.380Z,21.23
2022-12-11T01:55:57.024Z,21.37
2022-12-11T01:58:29.669Z,21.30
2022-12-11T02:00:58.311Z,21.00
2022-12-11T02:03:26.374Z,17.63
2022-12-11T02:05:54.047Z,17.65
2022-12-11T02:08:21.984Z,17.00
2022-12-11T02:11:19.281Z,17.30
2022-12-11T02:14:11.093Z,19.02
2022-12-11T02:16:50.982Z,19.73
2022-12-11T02:19:38.399Z,17.77
2022-12-11T02:22:11.496Z,19.73
2022-12-11T02:25:05.264Z,21.73
2022-12-11T02:27:43.152Z,21.60
2022-12-11T02:30:14.242Z,19.58
2022-12-11T02:32:55.525Z,20.90
2022-12-11T02:35:26.131Z,22.43
2022-12-11T02:38:03.590Z,20.63
2022-12-11T02:40:35.277Z,21.15
2022-12-11T02:43:07.221Z,20.77
2022-12-11T02:45:36.343Z,21.50
2022-12-11T02:48:06.562Z,23.00
2022-12-11T02:50:36.500Z,22.37
2022-12-11T02:53:06.571Z,23.23
2022-12-11T02:55:37.512Z,21.93
2022-12-11T02:58:28.200Z,21.33
2022-12-11T03:00:56.020Z,22.40
2022-12-11T03:03:24.167Z,24.20
2022-12-11T03:08:19.535Z,20.75
2022-12-11T03:10:47.462Z,20.48
2022-12-11T03:13:20.099Z,22.77
2022-12-11T03:15:56.626Z,24.77
2022-12-11T03:18:34.205Z,24.23
2022-12-11T03:21:09.669Z,23.83
2022-12-11T03:23:49.876Z,22.33
2022-12-11T03:26:20.142Z,22.23
2022-12-11T03:29:00.565Z,22.73
2022-12-11T03:31:35.025Z,23.20
2022-12-11T03:34:09.270Z,21.57
2022-12-11T03:36:38.712Z,22.20
2022-12-11T03:39:11.466Z,23.13
2022-12-11T03:41:41.245Z,23.23
2022-12-11T03:44:12.486Z,23.90
2022-12-11T03:46:43.693Z,22.23
2022-12-11T03:49:22.242Z,23.30
2022-12-11T03:51:53.305Z,22.90
2022-12-11T03:54:21.526Z,22.87
2022-12-11T03:59:19.356Z,22.17
2022-12-11T04:01:47.734Z,22.50
2022-12-11T04:06:43.457Z,23.58
2022-12-11T04:11:39.705Z,23.87
2022-12-11T04:17:00.099Z,23.50
2022-12-11T04:19:46.666Z,23.17
2022-12-11T04:22:34.757Z,24.53
2022-12-11T04:25:03.432Z,21.57
2022-12-11T04:27:49.027Z,21.27
2022-12-11T04:30:23.128Z,22.77
2022-12-11T04:32:51.591Z,25.00
2022-12-11T04:35:20.608Z,24.47
2022-12-11T04:42:44.924Z,23.70
2022-12-11T04:45:13.403Z,22.65
2022-12-11T04:47:41.727Z,23.57
2022-12-11T04:52:37.733Z,23.13
2022-12-11T04:55:06.667Z,21.95
2022-12-11T04:57:34.875Z,22.60
2022-12-11T05:02:36.275Z,19.47
2022-12-11T05:05:13.180Z,20.80
2022-12-11T05:07:41.318Z,21.42
2022-12-11T05:10:09.606Z,22.30
2022-12-11T05:12:37.409Z,21.93
2022-12-11T05:15:05.396Z,24.02
2022-12-11T05:19:07.467Z,21.83
2022-12-11T05:21:35.501Z,23.35
2022-12-11T05:26:31.051Z,22.17
2022-12-11T05:28:58.891Z,23.80
2022-12-11T05:31:27.995Z,22.92
2022-12-11T05:33:56.371Z,23.10
2022-12-11T05:36:27.555Z,21.27
2022-12-11T05:38:55.749Z,20.27
2022-12-11T05:41:25.862Z,22.10
2022-12-11T05:43:53.852Z,23.33
2022-12-11T05:46:23.767Z,22.38
2022-12-11T05:48:54.689Z,22.77
2022-12-11T05:51:22.952Z,24.20
2022-12-11T05:53:52.268Z,25.37
2022-12-11T05:56:23.906Z,24.20
2022-12-11T05:58:52.412Z,23.10
2022-12-11T06:01:30.219Z,23.50
2022-12-11T06:03:58.956Z,23.27
2022-12-11T06:06:28.244Z,23.47
2022-12-11T06:08:57.935Z,23.67
2022-12-11T06:11:29.697Z,23.07
2022-12-11T06:13:57.668Z,22.83
2022-12-11T06:16:25.481Z,23.63
2022-12-11T06:18:57.866Z,25.48
2022-12-11T06:21:30.099Z,22.87
2022-12-11T06:23:59.856Z,23.47
2022-12-11T06:26:28.296Z,23.67
2022-12-11T06:28:56.009Z,23.63
2022-12-11T06:31:23.745Z,23.60
2022-12-11T06:33:51.958Z,25.40
2022-12-11T06:38:49.581Z,21.40
2022-12-11T06:41:17.540Z,23.87
2022-12-11T06:43:45.511Z,25.02
2022-12-11T06:46:16.064Z,27.00
2022-12-11T06:48:44.425Z,22.63
2022-12-11T06:51:14.901Z,25.57
2022-12-11T06:53:42.599Z,28.63
2022-12-11T06:56:15.850Z,28.58
2022-12-11T06:58:44.333Z,27.40
2022-12-11T07:01:24.796Z,25.63
2022-12-11T07:03:57.508Z,24.80
2022-12-11T07:06:26.677Z,25.47
2022-12-11T07:08:54.641Z,27.40
2022-12-11T07:11:22.416Z,27.15
2022-12-11T07:13:50.317Z,27.08
2022-12-11T07:16:18.890Z,21.55
2022-12-11T07:18:49.404Z,27.27
2022-12-11T07:21:17.755Z,22.83
2022-12-11T07:23:45.559Z,16.57
2022-12-11T07:26:15.926Z,24.30
2022-12-11T07:28:43.957Z,25.77
2022-12-11T07:33:41.427Z,19.03
2022-12-11T07:36:11.404Z,16.47
2022-12-11T07:38:39.260Z,24.77
2022-12-11T07:41:11.188Z,17.17
2022-12-11T07:43:39.103Z,21.10
2022-12-11T07:46:17.021Z,22.05
2022-12-11T07:48:46.402Z,23.95
2022-12-11T07:51:17.553Z,13.47
2022-12-11T07:53:47.950Z,23.50
2022-12-11T07:56:16.943Z,26.80
2022-12-11T07:58:45.680Z,24.17
2022-12-11T08:01:16.777Z,26.47
2022-12-11T08:03:44.806Z,25.33
2022-12-11T08:06:13.539Z,23.10
2022-12-11T08:08:42.180Z,25.67
2022-12-11T08:11:14.191Z,25.10
2022-12-11T08:13:43.125Z,25.30
2022-12-11T08:16:13.426Z,26.67
2022-12-11T08:18:42.598Z,27.77
2022-12-11T08:21:13.575Z,25.10
2022-12-11T08:23:41.358Z,24.00
2022-12-11T08:26:16.550Z,26.52
2022-12-11T08:28:44.774Z,26.47
2022-12-11T08:33:41.935Z,21.80
2022-12-11T08:36:13.291Z,21.67
2022-12-11T08:38:41.617Z,24.27
2022-12-11T08:41:14.705Z,24.27
2022-12-11T08:43:43.137Z,25.00
2022-12-11T08:46:13.400Z,27.37
2022-12-11T08:48:42.722Z,27.43
2022-12-11T08:51:16.673Z,24.10
2022-12-11T08:53:44.847Z,23.70
2022-12-11T08:56:15.994Z,22.33
2022-12-11T08:58:44.775Z,24.37
2022-12-11T09:01:24.915Z,22.23
2022-12-11T09:03:54.352Z,21.20
2022-12-11T09:06:23.884Z,24.13
2022-12-11T09:08:53.424Z,22.07
2022-12-11T09:11:24.268Z,21.20
2022-12-11T09:13:53.011Z,20.87
2022-12-11T09:16:23.670Z,20.43
2022-12-11T09:18:53.614Z,21.50
2022-12-11T09:21:26.408Z,19.30
2022-12-11T09:23:56.494Z,20.43
2022-12-11T09:26:25.525Z,20.90
2022-12-11T09:28:54.229Z,18.63
2022-12-11T09:31:28.065Z,21.77
2022-12-11T09:33:58.540Z,20.30
2022-12-11T09:36:26.328Z,20.33
2022-12-11T09:38:54.296Z,20.17
2022-12-11T09:43:58.521Z,17.20
2022-12-11T09:46:33.537Z,20.10
2022-12-11T09:49:04.124Z,15.60
2022-12-11T09:51:42.858Z,20.23
2022-12-11T09:54:14.917Z,14.87
2022-12-11T09:56:57.837Z,21.13
2022-12-11T09:59:38.606Z,20.80
2022-12-11T10:02:23.230Z,19.47
2022-12-11T10:05:04.605Z,18.27
2022-12-11T10:07:42.254Z,17.23
2022-12-11T10:10:39.406Z,21.58
2022-12-11T10:13:45.875Z,19.05
2022-12-11T10:16:44.540Z,21.10
2022-12-11T10:19:20.744Z,15.80
2022-12-11T10:21:51.081Z,16.30
2022-12-11T10:25:10.085Z,21.67
2022-12-11T10:27:35.889Z,19.60
2022-12-11T10:30:20.897Z,19.40
2022-12-11T10:33:26.317Z,16.63
2022-12-11T10:35:54.186Z,12.70
2022-12-11T10:38:34.578Z,20.13
2022-12-11T10:41:12.580Z,21.10
2022-12-11T10:43:50.024Z,16.55
2022-12-11T10:46:25.479Z,18.48
2022-12-11T10:48:59.724Z,16.03
2022-12-11T10:51:30.510Z,18.57
2022-12-11T10:54:26.222Z,19.43
2022-12-11T10:56:56.885Z,20.13
2022-12-11T10:59:33.986Z,18.83
2022-12-11T11:02:02.609Z,20.98
2022-12-11T11:04:39.246Z,20.58
2022-12-11T11:07:17.280Z,19.63
2022-12-11T11:09:45.438Z,19.25
2022-12-11T11:15:13.555Z,16.98
2022-12-11T11:17:54.595Z,21.73
2022-12-11T11:20:31.830Z,18.13
2022-12-11T11:23:13.001Z,22.48
2022-12-11T11:26:00.627Z,19.80
2022-12-11T11:28:48.474Z,17.92
2022-12-11T11:31:17.881Z,19.50
2022-12-11T11:34:08.572Z,18.73
2022-12-11T11:36:37.989Z,18.50
2022-12-11T11:39:31.487Z,15.85
2022-12-11T11:42:28.111Z,15.37
2022-12-11T11:45:37.859Z,12.90
2022-12-11T11:48:36.982Z,15.85
2022-12-11T11:51:16.049Z,14.55
2022-12-11T11:53:48.693Z,13.68
2022-12-11T11:56:37.836Z,14.18
2022-12-11T11:59:19.694Z,12.90
2022-12-11T12:01:47.927Z,11.18
2022-12-11T12:06:56.304Z,12.50
2022-12-11T12:09:54.821Z,10.90
2022-12-11T12:12:27.528Z,11.90
2022-12-11T12:15:34.360Z,12.13
2022-12-11T12:18:11.294Z,13.63
2022-12-11T12:20:41.891Z,11.90
2022-12-11T12:23:33.315Z,11.38
2022-12-11T12:26:33.976Z,11.25
2022-12-11T12:29:18.287Z,10.52
2022-12-11T12:32:11.318Z,10.98
2022-12-11T12:35:09.915Z,11.23
2022-12-11T12:38:11.453Z,11.45
2022-12-11T12:41:05.220Z,10.27
2022-12-11T12:44:08.747Z,11.63
2022-12-11T12:46:58.675Z,12.32
2022-12-11T12:49:36.508Z,11.13
2022-12-11T12:52:11.679Z,10.55
2022-12-11T12:57:13.924Z,11.25
2022-12-11T12:59:42.384Z,11.45
2022-12-11T13:02:17.048Z,11.13
2022-12-11T13:04:56.607Z,11.02
2022-12-11T13:07:33.041Z,12.10
2022-12-11T13:10:07.538Z,10.98
2022-12-11T13:12:46.802Z,10.25
2022-12-11T13:15:39.140Z,11.57
2022-12-11T13:18:32.895Z,11.38
2022-12-11T13:21:01.391Z,20.20
2022-12-11T13:23:35.441Z,17.00
2022-12-11T13:26:09.814Z,13.20
2022-12-11T13:28:40.410Z,15.93
2022-12-11T13:31:28.123Z,13.82
2022-12-11T13:33:58.546Z,12.93
2022-12-11T13:36:34.048Z,15.57
2022-12-11T13:39:31.036Z,12.88
2022-12-11T13:42:11.831Z,13.05
2022-12-11T13:44:47.491Z,11.00
2022-12-11T13:47:18.472Z,11.63
2022-12-11T13:49:50.184Z,10.77
2022-12-11T13:52:23.469Z,12.45
2022-12-11T13:54:53.656Z,11.43
2022-12-11T13:57:25.971Z,11.50
2022-12-11T13:59:56.059Z,10.93
2022-12-11T14:02:39.489Z,13.35
2022-12-11T14:05:10.362Z,12.35
2022-12-11T14:07:55.277Z,11.93
2022-12-11T14:10:28.438Z,9.57
2022-12-11T14:13:02.005Z,12.82
2022-12-11T14:15:31.878Z,12.45
2022-12-11T14:18:01.133Z,12.25
2022-12-11T14:20:32.026Z,12.23
2022-12-11T14:23:18.169Z,13.88
2022-12-11T14:26:20.337Z,13.32
2022-12-11T14:28:48.447Z,11.40
2022-12-11T14:34:00.097Z,13.32
2022-12-11T14:36:30.299Z,13.67
2022-12-11T14:39:05.003Z,13.47
2022-12-11T14:42:05.602Z,13.30
2022-12-11T14:44:41.025Z,13.40
2022-12-11T14:47:18.916Z,13.23
2022-12-11T14:50:01.124Z,13.17
2022-12-11T14:52:33.972Z,11.93
2022-12-11T14:55:14.263Z,14.50
2022-12-11T14:57:45.961Z,14.57
2022-12-11T15:00:26.235Z,14.97
2022-12-11T15:02:59.613Z,14.57
2022-12-11T15:05:28.619Z,10.90
2022-12-11T15:08:05.747Z,13.45
2022-12-11T15:11:03.326Z,13.40
2022-12-11T15:16:00.655Z,14.23
2022-12-11T15:18:33.003Z,12.47
2022-12-11T15:21:07.190Z,14.53
2022-12-11T15:23:45.895Z,14.80
2022-12-11T15:26:13.951Z,13.30
2022-12-11T15:28:41.608Z,13.10
2022-12-11T15:31:29.603Z,14.23
2022-12-11T15:33:57.916Z,13.40
2022-12-11T15:36:37.525Z,18.10
2022-12-11T15:39:08.775Z,17.83
2022-12-11T15:41:36.825Z,13.43
2022-12-11T15:44:04.894Z,11.98
2022-12-11T15:49:12.565Z,13.80
2022-12-11T15:51:43.621Z,13.70
2022-12-11T15:54:11.297Z,12.00
2022-12-11T15:56:40.151Z,11.18
2022-12-11T15:59:08.118Z,11.33
2022-12-11T16:01:35.853Z,14.50
2022-12-11T16:04:05.429Z,16.63
2022-12-11T16:06:34.365Z,13.07
2022-12-11T16:09:04.206Z,19.77
2022-12-11T16:11:31.863Z,16.97
2022-12-11T16:14:03.957Z,21.73
2022-12-11T16:16:32.249Z,13.90
2022-12-11T16:19:01.008Z,12.27
2022-12-11T16:21:28.727Z,18.57
2022-12-11T16:23:56.505Z,10.65
2022-12-11T16:26:24.132Z,17.33
2022-12-11T16:28:51.776Z,14.85
2022-12-11T16:31:19.668Z,17.35
2022-12-11T16:33:47.447Z,19.17
2022-12-11T16:36:17.237Z,19.58
2022-12-11T16:38:52.916Z,14.50
2022-12-11T16:41:23.118Z,18.50
2022-12-11T16:43:50.844Z,17.23
2022-12-11T16:46:19.902Z,18.40
2022-12-11T16:48:47.775Z,14.73
2022-12-11T16:51:16.386Z,19.00
2022-12-11T16:53:44.104Z,18.23
2022-12-11T16:56:11.673Z,19.88
2022-12-11T16:58:40.772Z,19.98
2022-12-11T17:01:13.348Z,19.40
2022-12-11T17:03:42.991Z,19.83
2022-12-11T17:06:14.019Z,20.30
2022-12-11T17:08:43.252Z,19.57
2022-12-11T17:11:14.838Z,20.67
2022-12-11T17:13:43.376Z,17.97
2022-12-11T17:16:13.764Z,18.47
2022-12-11T17:18:42.649Z,18.93
2022-12-11T17:21:16.171Z,17.97
2022-12-11T17:23:44.979Z,16.30
2022-12-11T17:26:13.008Z,14.37
2022-12-11T17:28:41.242Z,19.10
2022-12-11T17:31:12.669Z,17.97
2022-12-11T17:33:40.917Z,17.73
2022-12-11T17:36:09.045Z,16.60
2022-12-11T17:38:36.944Z,17.87
2022-12-11T17:41:07.585Z,10.67
2022-12-11T17:43:35.202Z,17.20
2022-12-11T17:46:03.800Z,17.88
2022-12-11T17:48:31.811Z,18.17
2022-12-11T17:51:04.217Z,18.48
2022-12-11T17:53:32.863Z,18.57
2022-12-11T17:56:02.031Z,17.83
2022-12-11T17:58:30.328Z,18.00
2022-12-11T18:00:58.672Z,17.90
2022-12-11T18:03:27.917Z,16.50
2022-12-11T18:05:57.218Z,16.47
2022-12-11T18:08:29.892Z,17.17
2022-12-11T18:11:10.246Z,16.97
2022-12-11T18:13:38.022Z,18.37
2022-12-11T18:16:17.757Z,16.90
2022-12-11T18:18:46.959Z,15.67
2022-12-11T18:21:16.660Z,14.73
2022-12-11T18:23:45.169Z,17.37
2022-12-11T18:26:14.925Z,16.63
2022-12-11T18:28:42.933Z,11.47
2022-12-11T18:31:11.449Z,17.52
2022-12-11T18:33:40.073Z,17.10
2022-12-11T18:36:08.422Z,16.80
2022-12-11T18:38:37.048Z,16.70
2022-12-11T18:41:08.055Z,14.32
2022-12-11T18:43:37.727Z,16.53
2022-12-11T18:46:07.841Z,15.93
2022-12-11T18:48:35.709Z,17.13
2022-12-11T18:51:11.194Z,18.90
2022-12-11T18:53:39.745Z,18.33
2022-12-11T18:56:10.384Z,15.67
2022-12-11T18:58:38.545Z,16.73
2022-12-11T19:03:44.794Z,17.37
2022-12-11T19:06:18.705Z,18.63
2022-12-11T19:08:46.889Z,16.13
2022-12-11T19:13:44.425Z,19.90
2022-12-11T19:16:17.948Z,18.83
2022-12-11T19:18:47.394Z,19.07
2022-12-11T19:21:17.039Z,19.70
2022-12-11T19:23:48.507Z,18.83
2022-12-11T19:26:19.624Z,19.07
2022-12-11T19:28:48.853Z,19.10
2022-12-11T19:31:19.606Z,20.67
2022-12-11T19:33:49.437Z,20.30
2022-12-11T19:36:21.965Z,21.33
2022-12-11T19:38:54.389Z,18.47
2022-12-11T19:41:27.460Z,18.10
2022-12-11T19:43:58.938Z,20.47
2022-12-11T19:46:27.919Z,21.07
2022-12-11T19:48:57.293Z,19.73
2022-12-11T19:51:28.748Z,10.27
2022-12-11T19:53:56.893Z,20.43
2022-12-11T19:58:52.142Z,17.08
2022-12-11T20:01:30.247Z,11.00
2022-12-11T20:04:02.218Z,17.90
2022-12-11T20:06:32.144Z,19.13
2022-12-11T20:08:59.936Z,15.70
2022-12-11T20:11:28.187Z,22.23
2022-12-11T20:13:56.662Z,19.50
2022-12-11T20:16:46.209Z,21.83
2022-12-11T20:19:12.618Z,16.80
2022-12-11T20:21:40.253Z,13.00
2022-12-11T20:24:08.982Z,19.85
2022-12-11T20:26:38.269Z,19.03
2022-12-11T20:29:08.363Z,21.17
2022-12-11T20:31:36.728Z,19.83
2022-12-11T20:36:33.215Z,18.57
2022-12-11T20:39:01.542Z,21.27
2022-12-11T20:41:29.631Z,20.20
2022-12-11T20:46:27.546Z,22.67
2022-12-11T20:48:58.641Z,24.67
2022-12-11T20:51:27.116Z,25.50
2022-12-11T20:53:59.068Z,22.77
2022-12-11T20:56:29.936Z,23.07
2022-12-11T20:59:03.459Z,23.90
2022-12-11T21:01:33.052Z,24.27
2022-12-11T21:04:01.361Z,26.00
2022-12-11T21:06:35.780Z,24.47
2022-12-11T21:09:07.028Z,24.07
2022-12-11T21:11:35.417Z,26.60
2022-12-11T21:14:03.357Z,26.10
2022-12-11T21:16:31.310Z,26.95
2022-12-11T21:18:59.380Z,24.85
2022-12-11T21:23:55.899Z,27.17
2022-12-11T21:26:23.986Z,26.67
2022-12-11T21:28:52.653Z,25.95
2022-12-11T21:31:21.587Z,22.70
2022-12-11T21:33:49.543Z,24.23
2022-12-11T21:36:18.119Z,25.48
2022-12-11T21:38:46.943Z,26.00
2022-12-11T21:41:20.203Z,24.60
2022-12-11T21:46:39.678Z,25.40
2022-12-11T21:49:08.596Z,29.25
2022-12-11T21:51:42.531Z,26.90
2022-12-11T21:54:14.673Z,24.77
2022-12-11T21:56:42.746Z,23.13
2022-12-11T22:01:42.238Z,26.70
2022-12-11T22:04:11.399Z,26.80
2022-12-11T22:06:42.054Z,26.17
2022-12-11T22:09:12.679Z,25.80
2022-12-11T22:11:42.249Z,24.53
2022-12-11T22:14:15.590Z,26.37
2022-12-11T22:16:43.907Z,26.17
2022-12-11T22:21:39.331Z,29.70
2022-12-11T22:24:07.412Z,30.98
2022-12-11T22:26:35.436Z,31.47
2022-12-11T22:29:04.312Z,32.72
2022-12-11T22:31:32.726Z,34.20
2022-12-11T22:34:06.601Z,31.60
2022-12-11T22:36:34.673Z,27.33
2022-12-11T22:39:02.284Z,28.17
2022-12-11T22:41:32.232Z,22.73
2022-12-11T22:44:02.521Z,30.43
2022-12-11T22:46:31.322Z,25.00
2022-12-11T22:48:59.694Z,27.80
2022-12-11T22:51:28.054Z,28.87
2022-12-11T22:53:55.987Z,28.83
2022-12-11T22:58:51.665Z,29.27
2022-12-11T23:01:24.685Z,29.63
2022-12-11T23:03:53.097Z,28.70
2022-12-11T23:06:24.682Z,27.60
2022-12-11T23:08:57.871Z,28.17
2022-12-11T23:11:35.083Z,22.53
2022-12-11T23:14:07.942Z,27.85
2022-12-11T23:16:35.751Z,28.97
2022-12-11T23:19:03.988Z,43.97
2022-12-11T23:21:36.940Z,29.07
2022-12-11T23:24:05.078Z,28.10
2022-12-11T23:29:04.847Z,41.15
2022-12-11T23:31:34.550Z,37.70
2022-12-11T23:34:02.216Z,35.67
2022-12-11T23:36:30.850Z,21.25
2022-12-11T23:39:00.059Z,25.77
2022-12-11T23:41:27.848Z,23.00
2022-12-11T23:43:55.579Z,31.92
2022-12-11T23:46:25.252Z,24.73
2022-12-11T23:48:53.914Z,28.57
2022-12-11T23:51:24.248Z,29.63
2022-12-11T23:53:52.668Z,28.20
2022-12-11T23:56:30.186Z,29.00
2022-12-11T23:58:59.122Z,32.63
